sensor_id;sensor_type;location;lat;lon;timestamp;P1;durP1;ratioP1;P2;durP2;ratioP2
47860;SDS011;33620;52.340;5.984;2022-10-16T00:02:07;6.43;;;2.55;;
47860;SDS011;33620;52.340;5.984;2022-10-16T00:04:32;7.20;;;3.05;;
47860;SDS011;33620;52.340;5.984;2022-10-16T00:06:58;9.27;;;2.85;;
47860;SDS011;33620;52.340;5.984;2022-10-16T00:09:23;10.50;;;3.22;;
47860;SDS011;33620;52.340;5.984;2022-10-16T00:11:48;10.63;;;3.47;;
47860;SDS011;33620;52.340;5.984;2022-10-16T00:14:14;12.13;;;3.30;;
47860;SDS011;33620;52.340;5.984;2022-10-16T00:16:40;7.60;;;3.08;;
47860;SDS011;33620;52.340;5.984;2022-10-16T00:19:06;8.80;;;2.90;;
47860;SDS011;33620;52.340;5.984;2022-10-16T00:21:32;8.70;;;3.15;;
47860;SDS011;33620;52.340;5.984;2022-10-16T00:23:59;7.35;;;3.10;;
47860;SDS011;33620;52.340;5.984;2022-10-16T00:26:28;7.78;;;3.15;;
47860;SDS011;33620;52.340;5.984;2022-10-16T00:28:54;7.43;;;2.97;;
47860;SDS011;33620;52.340;5.984;2022-10-16T00:31:21;6.45;;;3.03;;
47860;SDS011;33620;52.340;5.984;2022-10-16T00:33:48;9.38;;;3.35;;
47860;SDS011;33620;52.340;5.984;2022-10-16T00:36:15;6.75;;;2.70;;
47860;SDS011;33620;52.340;5.984;2022-10-16T00:38:41;10.82;;;2.90;;
47860;SDS011;33620;52.340;5.984;2022-10-16T00:41:09;9.23;;;3.20;;
47860;SDS011;33620;52.340;5.984;2022-10-16T00:46:20;8.15;;;2.90;;
47860;SDS011;33620;52.340;5.984;2022-10-16T00:48:59;8.80;;;2.50;;
47860;SDS011;33620;52.340;5.984;2022-10-16T00:51:37;8.88;;;2.55;;
47860;SDS011;33620;52.340;5.984;2022-10-16T00:54:09;8.05;;;3.08;;
47860;SDS011;33620;52.340;5.984;2022-10-16T00:56:38;7.78;;;2.92;;
47860;SDS011;33620;52.340;5.984;2022-10-16T00:59:04;7.22;;;3.28;;
47860;SDS011;33620;52.340;5.984;2022-10-16T01:01:35;6.90;;;3.03;;
47860;SDS011;33620;52.340;5.984;2022-10-16T01:04:00;5.57;;;2.55;;
47860;SDS011;33620;52.340;5.984;2022-10-16T01:09:17;10.63;;;2.80;;
47860;SDS011;33620;52.340;5.984;2022-10-16T01:11:57;8.48;;;3.00;;
47860;SDS011;33620;52.340;5.984;2022-10-16T01:14:48;11.48;;;3.20;;
47860;SDS011;33620;52.340;5.984;2022-10-16T01:17:21;4.97;;;2.77;;
47860;SDS011;33620;52.340;5.984;2022-10-16T01:20:10;11.15;;;2.80;;
47860;SDS011;33620;52.340;5.984;2022-10-16T01:25:32;8.02;;;2.45;;
47860;SDS011;33620;52.340;5.984;2022-10-16T01:28:20;10.90;;;3.28;;
47860;SDS011;33620;52.340;5.984;2022-10-16T01:30:49;10.23;;;3.30;;
47860;SDS011;33620;52.340;5.984;2022-10-16T01:33:21;6.95;;;2.65;;
47860;SDS011;33620;52.340;5.984;2022-10-16T01:35:53;7.25;;;3.05;;
47860;SDS011;33620;52.340;5.984;2022-10-16T01:38:26;10.82;;;2.67;;
47860;SDS011;33620;52.340;5.984;2022-10-16T01:40:59;9.20;;;3.08;;
47860;SDS011;33620;52.340;5.984;2022-10-16T01:43:29;7.30;;;2.80;;
47860;SDS011;33620;52.340;5.984;2022-10-16T01:46:00;5.80;;;2.67;;
47860;SDS011;33620;52.340;5.984;2022-10-16T01:48:26;4.70;;;2.22;;
47860;SDS011;33620;52.340;5.984;2022-10-16T01:51:00;9.52;;;2.90;;
47860;SDS011;33620;52.340;5.984;2022-10-16T01:53:30;8.57;;;2.92;;
47860;SDS011;33620;52.340;5.984;2022-10-16T01:55:56;9.20;;;3.08;;
47860;SDS011;33620;52.340;5.984;2022-10-16T01:58:24;5.82;;;2.88;;
47860;SDS011;33620;52.340;5.984;2022-10-16T02:00:52;5.63;;;3.00;;
47860;SDS011;33620;52.340;5.984;2022-10-16T02:03:20;8.48;;;2.67;;
47860;SDS011;33620;52.340;5.984;2022-10-16T02:05:46;7.03;;;2.90;;
47860;SDS011;33620;52.340;5.984;2022-10-16T02:08:23;7.95;;;3.03;;
47860;SDS011;33620;52.340;5.984;2022-10-16T02:10:53;9.27;;;3.20;;
47860;SDS011;33620;52.340;5.984;2022-10-16T02:13:23;5.80;;;2.72;;
47860;SDS011;33620;52.340;5.984;2022-10-16T02:15:52;4.55;;;2.83;;
47860;SDS011;33620;52.340;5.984;2022-10-16T02:18:18;5.82;;;2.75;;
47860;SDS011;33620;52.340;5.984;2022-10-16T02:20:55;6.32;;;2.70;;
47860;SDS011;33620;52.340;5.984;2022-10-16T02:23:42;6.13;;;2.88;;
47860;SDS011;33620;52.340;5.984;2022-10-16T02:26:14;4.32;;;2.55;;
47860;SDS011;33620;52.340;5.984;2022-10-16T02:28:48;5.50;;;2.83;;
47860;SDS011;33620;52.340;5.984;2022-10-16T02:31:22;6.00;;;3.00;;
47860;SDS011;33620;52.340;5.984;2022-10-16T02:33:52;7.93;;;3.42;;
47860;SDS011;33620;52.340;5.984;2022-10-16T02:36:20;9.73;;;3.40;;
47860;SDS011;33620;52.340;5.984;2022-10-16T02:38:46;5.55;;;2.90;;
47860;SDS011;33620;52.340;5.984;2022-10-16T02:41:12;10.95;;;3.63;;
47860;SDS011;33620;52.340;5.984;2022-10-16T02:43:38;8.10;;;3.38;;
47860;SDS011;33620;52.340;5.984;2022-10-16T02:46:03;5.07;;;3.33;;
47860;SDS011;33620;52.340;5.984;2022-10-16T02:48:29;7.60;;;3.28;;
47860;SDS011;33620;52.340;5.984;2022-10-16T02:50:54;10.30;;;3.47;;
47860;SDS011;33620;52.340;5.984;2022-10-16T02:53:19;8.52;;;3.00;;
47860;SDS011;33620;52.340;5.984;2022-10-16T02:55:45;8.23;;;3.42;;
47860;SDS011;33620;52.340;5.984;2022-10-16T02:58:10;6.35;;;3.17;;
47860;SDS011;33620;52.340;5.984;2022-10-16T03:00:35;10.18;;;3.78;;
47860;SDS011;33620;52.340;5.984;2022-10-16T03:03:01;8.13;;;3.53;;
47860;SDS011;33620;52.340;5.984;2022-10-16T03:05:26;7.07;;;3.40;;
47860;SDS011;33620;52.340;5.984;2022-10-16T03:07:52;10.98;;;3.53;;
47860;SDS011;33620;52.340;5.984;2022-10-16T03:10:17;10.13;;;3.83;;
47860;SDS011;33620;52.340;5.984;2022-10-16T03:12:43;7.70;;;3.63;;
47860;SDS011;33620;52.340;5.984;2022-10-16T03:15:08;9.15;;;3.80;;
47860;SDS011;33620;52.340;5.984;2022-10-16T03:17:34;5.45;;;3.05;;
47860;SDS011;33620;52.340;5.984;2022-10-16T03:19:59;8.32;;;3.70;;
47860;SDS011;33620;52.340;5.984;2022-10-16T03:22:25;6.95;;;3.30;;
47860;SDS011;33620;52.340;5.984;2022-10-16T03:24:50;11.00;;;4.15;;
47860;SDS011;33620;52.340;5.984;2022-10-16T03:27:16;6.47;;;3.53;;
47860;SDS011;33620;52.340;5.984;2022-10-16T03:29:41;7.68;;;3.70;;
47860;SDS011;33620;52.340;5.984;2022-10-16T03:32:06;9.32;;;3.65;;
47860;SDS011;33620;52.340;5.984;2022-10-16T03:34:32;10.80;;;4.07;;
47860;SDS011;33620;52.340;5.984;2022-10-16T03:36:57;7.85;;;3.88;;
47860;SDS011;33620;52.340;5.984;2022-10-16T03:39:23;6.85;;;3.60;;
47860;SDS011;33620;52.340;5.984;2022-10-16T03:41:48;6.78;;;3.00;;
47860;SDS011;33620;52.340;5.984;2022-10-16T03:44:14;7.45;;;3.60;;
47860;SDS011;33620;52.340;5.984;2022-10-16T03:46:39;5.93;;;3.20;;
47860;SDS011;33620;52.340;5.984;2022-10-16T03:49:05;8.88;;;3.63;;
47860;SDS011;33620;52.340;5.984;2022-10-16T03:51:30;10.48;;;3.60;;
47860;SDS011;33620;52.340;5.984;2022-10-16T03:53:56;6.82;;;3.63;;
47860;SDS011;33620;52.340;5.984;2022-10-16T03:56:21;8.20;;;3.05;;
47860;SDS011;33620;52.340;5.984;2022-10-16T03:58:46;6.75;;;3.35;;
47860;SDS011;33620;52.340;5.984;2022-10-16T04:01:12;7.68;;;3.78;;
47860;SDS011;33620;52.340;5.984;2022-10-16T04:03:37;10.23;;;4.00;;
47860;SDS011;33620;52.340;5.984;2022-10-16T04:06:03;7.05;;;4.00;;
47860;SDS011;33620;52.340;5.984;2022-10-16T04:08:28;6.47;;;3.20;;
47860;SDS011;33620;52.340;5.984;2022-10-16T04:10:53;4.10;;;2.90;;
47860;SDS011;33620;52.340;5.984;2022-10-16T04:13:19;6.13;;;3.45;;
47860;SDS011;33620;52.340;5.984;2022-10-16T04:15:44;9.35;;;3.75;;
47860;SDS011;33620;52.340;5.984;2022-10-16T04:18:10;4.35;;;3.13;;
47860;SDS011;33620;52.340;5.984;2022-10-16T04:20:35;6.95;;;3.30;;
47860;SDS011;33620;52.340;5.984;2022-10-16T04:23:00;9.40;;;3.35;;
47860;SDS011;33620;52.340;5.984;2022-10-16T04:25:26;8.35;;;3.13;;
47860;SDS011;33620;52.340;5.984;2022-10-16T04:27:54;8.15;;;3.17;;
47860;SDS011;33620;52.340;5.984;2022-10-16T04:30:20;8.35;;;3.40;;
47860;SDS011;33620;52.340;5.984;2022-10-16T04:32:50;5.97;;;3.42;;
47860;SDS011;33620;52.340;5.984;2022-10-16T04:35:17;7.60;;;4.05;;
47860;SDS011;33620;52.340;5.984;2022-10-16T04:37:43;5.45;;;2.88;;
47860;SDS011;33620;52.340;5.984;2022-10-16T04:40:08;8.35;;;3.15;;
47860;SDS011;33620;52.340;5.984;2022-10-16T04:42:34;5.95;;;3.30;;
47860;SDS011;33620;52.340;5.984;2022-10-16T04:44:59;8.75;;;3.38;;
47860;SDS011;33620;52.340;5.984;2022-10-16T04:47:24;8.52;;;3.08;;
47860;SDS011;33620;52.340;5.984;2022-10-16T04:49:50;8.40;;;3.10;;
47860;SDS011;33620;52.340;5.984;2022-10-16T04:52:15;7.22;;;3.10;;
47860;SDS011;33620;52.340;5.984;2022-10-16T04:54:41;4.80;;;2.97;;
47860;SDS011;33620;52.340;5.984;2022-10-16T04:57:06;6.40;;;2.92;;
47860;SDS011;33620;52.340;5.984;2022-10-16T04:59:32;8.07;;;4.03;;
47860;SDS011;33620;52.340;5.984;2022-10-16T05:01:57;5.68;;;3.13;;
47860;SDS011;33620;52.340;5.984;2022-10-16T05:04:22;8.27;;;2.92;;
47860;SDS011;33620;52.340;5.984;2022-10-16T05:06:48;5.18;;;2.33;;
47860;SDS011;33620;52.340;5.984;2022-10-16T05:09:14;6.25;;;2.80;;
47860;SDS011;33620;52.340;5.984;2022-10-16T05:11:39;5.00;;;2.38;;
47860;SDS011;33620;52.340;5.984;2022-10-16T05:14:04;7.20;;;2.92;;
47860;SDS011;33620;52.340;5.984;2022-10-16T05:16:30;7.57;;;3.28;;
47860;SDS011;33620;52.340;5.984;2022-10-16T05:18:55;6.50;;;2.80;;
47860;SDS011;33620;52.340;5.984;2022-10-16T05:21:21;6.50;;;2.70;;
47860;SDS011;33620;52.340;5.984;2022-10-16T05:23:47;10.30;;;3.03;;
47860;SDS011;33620;52.340;5.984;2022-10-16T05:26:13;9.32;;;2.85;;
47860;SDS011;33620;52.340;5.984;2022-10-16T05:28:38;8.52;;;3.22;;
47860;SDS011;33620;52.340;5.984;2022-10-16T05:31:04;5.35;;;2.85;;
47860;SDS011;33620;52.340;5.984;2022-10-16T05:33:34;7.60;;;2.67;;
47860;SDS011;33620;52.340;5.984;2022-10-16T05:36:03;8.15;;;2.95;;
47860;SDS011;33620;52.340;5.984;2022-10-16T05:38:29;7.22;;;2.90;;
47860;SDS011;33620;52.340;5.984;2022-10-16T05:40:55;5.40;;;2.70;;
47860;SDS011;33620;52.340;5.984;2022-10-16T05:43:21;6.20;;;3.00;;
47860;SDS011;33620;52.340;5.984;2022-10-16T05:48:30;8.63;;;2.80;;
47860;SDS011;33620;52.340;5.984;2022-10-16T05:51:00;7.05;;;2.80;;
47860;SDS011;33620;52.340;5.984;2022-10-16T05:53:27;6.75;;;3.20;;
47860;SDS011;33620;52.340;5.984;2022-10-16T05:55:54;7.40;;;2.80;;
47860;SDS011;33620;52.340;5.984;2022-10-16T05:58:20;8.45;;;2.97;;
47860;SDS011;33620;52.340;5.984;2022-10-16T06:00:56;5.68;;;2.60;;
47860;SDS011;33620;52.340;5.984;2022-10-16T06:03:23;8.05;;;3.05;;
47860;SDS011;33620;52.340;5.984;2022-10-16T06:05:49;10.82;;;2.97;;
47860;SDS011;33620;52.340;5.984;2022-10-16T06:08:15;7.40;;;3.25;;
47860;SDS011;33620;52.340;5.984;2022-10-16T06:10:40;7.45;;;3.08;;
47860;SDS011;33620;52.340;5.984;2022-10-16T06:13:06;6.95;;;2.92;;
47860;SDS011;33620;52.340;5.984;2022-10-16T06:15:31;9.13;;;3.50;;
47860;SDS011;33620;52.340;5.984;2022-10-16T06:17:56;8.40;;;2.92;;
47860;SDS011;33620;52.340;5.984;2022-10-16T06:20:22;10.00;;;3.78;;
47860;SDS011;33620;52.340;5.984;2022-10-16T06:22:47;10.50;;;3.90;;
47860;SDS011;33620;52.340;5.984;2022-10-16T06:25:12;9.38;;;3.75;;
47860;SDS011;33620;52.340;5.984;2022-10-16T06:27:41;9.32;;;3.78;;
47860;SDS011;33620;52.340;5.984;2022-10-16T06:30:07;11.55;;;3.95;;
47860;SDS011;33620;52.340;5.984;2022-10-16T06:32:32;8.25;;;3.78;;
47860;SDS011;33620;52.340;5.984;2022-10-16T06:34:58;8.65;;;3.50;;
47860;SDS011;33620;52.340;5.984;2022-10-16T06:37:23;10.05;;;3.88;;
47860;SDS011;33620;52.340;5.984;2022-10-16T06:39:49;13.10;;;4.55;;
47860;SDS011;33620;52.340;5.984;2022-10-16T06:42:17;11.98;;;4.35;;
47860;SDS011;33620;52.340;5.984;2022-10-16T06:44:42;12.32;;;4.40;;
47860;SDS011;33620;52.340;5.984;2022-10-16T06:47:08;9.85;;;4.22;;
47860;SDS011;33620;52.340;5.984;2022-10-16T06:49:33;9.13;;;3.97;;
47860;SDS011;33620;52.340;5.984;2022-10-16T06:51:58;13.25;;;4.40;;
47860;SDS011;33620;52.340;5.984;2022-10-16T06:54:24;11.38;;;4.10;;
47860;SDS011;33620;52.340;5.984;2022-10-16T06:56:50;9.75;;;4.20;;
47860;SDS011;33620;52.340;5.984;2022-10-16T06:59:16;10.82;;;4.47;;
47860;SDS011;33620;52.340;5.984;2022-10-16T07:01:41;12.48;;;4.50;;
47860;SDS011;33620;52.340;5.984;2022-10-16T07:04:07;7.65;;;3.83;;
47860;SDS011;33620;52.340;5.984;2022-10-16T07:06:33;9.77;;;4.45;;
47860;SDS011;33620;52.340;5.984;2022-10-16T07:09:00;9.82;;;4.20;;
47860;SDS011;33620;52.340;5.984;2022-10-16T07:11:28;7.97;;;3.75;;
47860;SDS011;33620;52.340;5.984;2022-10-16T07:13:53;7.13;;;3.97;;
47860;SDS011;33620;52.340;5.984;2022-10-16T07:16:20;11.32;;;4.85;;
47860;SDS011;33620;52.340;5.984;2022-10-16T07:18:47;9.30;;;4.10;;
47860;SDS011;33620;52.340;5.984;2022-10-16T07:21:17;6.70;;;3.65;;
47860;SDS011;33620;52.340;5.984;2022-10-16T07:23:45;12.27;;;4.30;;
47860;SDS011;33620;52.340;5.984;2022-10-16T07:26:14;8.57;;;4.28;;
47860;SDS011;33620;52.340;5.984;2022-10-16T07:28:40;7.97;;;3.80;;
47860;SDS011;33620;52.340;5.984;2022-10-16T07:31:09;8.23;;;4.13;;
47860;SDS011;33620;52.340;5.984;2022-10-16T07:33:36;19.55;;;4.30;;
47860;SDS011;33620;52.340;5.984;2022-10-16T07:36:03;9.35;;;4.22;;
47860;SDS011;33620;52.340;5.984;2022-10-16T07:38:29;8.50;;;4.28;;
47860;SDS011;33620;52.340;5.984;2022-10-16T07:41:01;10.68;;;4.03;;
47860;SDS011;33620;52.340;5.984;2022-10-16T07:43:28;10.95;;;4.10;;
47860;SDS011;33620;52.340;5.984;2022-10-16T07:45:54;10.02;;;4.07;;
47860;SDS011;33620;52.340;5.984;2022-10-16T07:48:20;10.82;;;3.95;;
47860;SDS011;33620;52.340;5.984;2022-10-16T07:50:46;8.07;;;3.60;;
47860;SDS011;33620;52.340;5.984;2022-10-16T07:53:11;7.07;;;3.15;;
47860;SDS011;33620;52.340;5.984;2022-10-16T07:55:37;10.13;;;3.20;;
47860;SDS011;33620;52.340;5.984;2022-10-16T07:58:03;8.43;;;3.28;;
47860;SDS011;33620;52.340;5.984;2022-10-16T08:00:29;7.78;;;3.00;;
47860;SDS011;33620;52.340;5.984;2022-10-16T08:02:56;5.97;;;3.35;;
47860;SDS011;33620;52.340;5.984;2022-10-16T08:05:27;7.65;;;2.83;;
47860;SDS011;33620;52.340;5.984;2022-10-16T08:07:54;6.07;;;3.40;;
47860;SDS011;33620;52.340;5.984;2022-10-16T08:10:21;6.85;;;3.33;;
47860;SDS011;33620;52.340;5.984;2022-10-16T08:12:48;9.88;;;3.20;;
47860;SDS011;33620;52.340;5.984;2022-10-16T08:15:13;7.38;;;3.38;;
47860;SDS011;33620;52.340;5.984;2022-10-16T08:17:38;10.30;;;2.95;;
47860;SDS011;33620;52.340;5.984;2022-10-16T08:20:04;7.72;;;3.42;;
47860;SDS011;33620;52.340;5.984;2022-10-16T08:22:30;6.88;;;2.70;;
47860;SDS011;33620;52.340;5.984;2022-10-16T08:24:56;9.52;;;3.08;;
47860;SDS011;33620;52.340;5.984;2022-10-16T08:27:21;6.07;;;2.90;;
47860;SDS011;33620;52.340;5.984;2022-10-16T08:29:48;8.38;;;2.42;;
47860;SDS011;33620;52.340;5.984;2022-10-16T08:32:13;6.68;;;2.55;;
47860;SDS011;33620;52.340;5.984;2022-10-16T08:34:39;6.05;;;2.58;;
47860;SDS011;33620;52.340;5.984;2022-10-16T08:37:04;7.93;;;2.42;;
47860;SDS011;33620;52.340;5.984;2022-10-16T08:39:30;9.48;;;2.40;;
47860;SDS011;33620;52.340;5.984;2022-10-16T08:41:59;5.40;;;2.40;;
47860;SDS011;33620;52.340;5.984;2022-10-16T08:45:03;7.63;;;2.25;;
47860;SDS011;33620;52.340;5.984;2022-10-16T08:50:39;10.15;;;2.60;;
47860;SDS011;33620;52.340;5.984;2022-10-16T08:53:05;6.97;;;3.15;;
47860;SDS011;33620;52.340;5.984;2022-10-16T08:55:41;10.43;;;3.33;;
47860;SDS011;33620;52.340;5.984;2022-10-16T08:58:12;10.90;;;3.70;;
47860;SDS011;33620;52.340;5.984;2022-10-16T09:00:39;9.57;;;3.42;;
47860;SDS011;33620;52.340;5.984;2022-10-16T09:05:48;8.30;;;3.45;;
47860;SDS011;33620;52.340;5.984;2022-10-16T09:10:59;15.23;;;4.35;;
47860;SDS011;33620;52.340;5.984;2022-10-16T09:16:30;11.43;;;3.97;;
47860;SDS011;33620;52.340;5.984;2022-10-16T09:19:01;12.10;;;4.05;;
47860;SDS011;33620;52.340;5.984;2022-10-16T09:21:45;16.95;;;4.22;;
47860;SDS011;33620;52.340;5.984;2022-10-16T09:24:16;10.70;;;3.67;;
47860;SDS011;33620;52.340;5.984;2022-10-16T09:26:45;12.02;;;4.38;;
47860;SDS011;33620;52.340;5.984;2022-10-16T09:29:11;14.25;;;4.13;;
47860;SDS011;33620;52.340;5.984;2022-10-16T09:31:38;13.13;;;3.78;;
47860;SDS011;33620;52.340;5.984;2022-10-16T09:34:03;13.45;;;3.63;;
47860;SDS011;33620;52.340;5.984;2022-10-16T09:36:35;8.07;;;3.83;;
47860;SDS011;33620;52.340;5.984;2022-10-16T09:39:07;18.63;;;3.42;;
47860;SDS011;33620;52.340;5.984;2022-10-16T09:41:35;12.25;;;3.47;;
47860;SDS011;33620;52.340;5.984;2022-10-16T09:44:04;10.07;;;3.13;;
47860;SDS011;33620;52.340;5.984;2022-10-16T09:46:42;13.38;;;3.38;;
47860;SDS011;33620;52.340;5.984;2022-10-16T09:49:21;12.80;;;3.45;;
47860;SDS011;33620;52.340;5.984;2022-10-16T09:51:48;12.52;;;3.45;;
47860;SDS011;33620;52.340;5.984;2022-10-16T09:54:15;18.30;;;3.97;;
47860;SDS011;33620;52.340;5.984;2022-10-16T09:56:43;12.18;;;3.35;;
47860;SDS011;33620;52.340;5.984;2022-10-16T10:01:41;10.45;;;3.22;;
47860;SDS011;33620;52.340;5.984;2022-10-16T10:04:10;19.65;;;3.83;;
47860;SDS011;33620;52.340;5.984;2022-10-16T10:06:37;11.23;;;3.10;;
47860;SDS011;33620;52.340;5.984;2022-10-16T10:11:47;15.57;;;3.05;;
47860;SDS011;33620;52.340;5.984;2022-10-16T10:14:21;16.90;;;3.55;;
47860;SDS011;33620;52.340;5.984;2022-10-16T10:16:47;12.07;;;2.60;;
47860;SDS011;33620;52.340;5.984;2022-10-16T10:19:14;16.35;;;3.63;;
47860;SDS011;33620;52.340;5.984;2022-10-16T10:21:40;16.20;;;3.28;;
47860;SDS011;33620;52.340;5.984;2022-10-16T10:24:09;9.60;;;2.65;;
47860;SDS011;33620;52.340;5.984;2022-10-16T10:26:39;13.23;;;2.58;;
47860;SDS011;33620;52.340;5.984;2022-10-16T10:34:21;13.68;;;2.53;;
47860;SDS011;33620;52.340;5.984;2022-10-16T10:58:39;13.35;;;2.72;;
47860;SDS011;33620;52.340;5.984;2022-10-16T11:10:16;9.70;;;2.97;;
47860;SDS011;33620;52.340;5.984;2022-10-16T11:12:47;16.65;;;2.67;;
47860;SDS011;33620;52.340;5.984;2022-10-16T11:20:25;13.30;;;2.75;;
47860;SDS011;33620;52.340;5.984;2022-10-16T11:22:56;10.02;;;2.95;;
47860;SDS011;33620;52.340;5.984;2022-10-16T11:25:28;11.95;;;2.50;;
47860;SDS011;33620;52.340;5.984;2022-10-16T11:30:29;12.98;;;3.05;;
47860;SDS011;33620;52.340;5.984;2022-10-16T11:38:09;11.10;;;2.83;;
47860;SDS011;33620;52.340;5.984;2022-10-16T11:40:45;10.38;;;2.40;;
47860;SDS011;33620;52.340;5.984;2022-10-16T11:43:28;9.52;;;2.70;;
47860;SDS011;33620;52.340;5.984;2022-10-16T11:46:02;12.23;;;2.40;;
47860;SDS011;33620;52.340;5.984;2022-10-16T11:48:36;10.27;;;2.50;;
47860;SDS011;33620;52.340;5.984;2022-10-16T11:51:17;16.08;;;2.90;;
47860;SDS011;33620;52.340;5.984;2022-10-16T11:54:10;14.02;;;2.95;;
47860;SDS011;33620;52.340;5.984;2022-10-16T11:56:46;11.32;;;2.42;;
47860;SDS011;33620;52.340;5.984;2022-10-16T12:05:23;13.30;;;2.50;;
47860;SDS011;33620;52.340;5.984;2022-10-16T12:08:13;19.20;;;3.25;;
47860;SDS011;33620;52.340;5.984;2022-10-16T12:10:41;16.27;;;2.92;;
47860;SDS011;33620;52.340;5.984;2022-10-16T12:16:04;12.55;;;2.80;;
47860;SDS011;33620;52.340;5.984;2022-10-16T12:18:29;9.45;;;2.55;;
47860;SDS011;33620;52.340;5.984;2022-10-16T12:20:55;12.95;;;3.35;;
47860;SDS011;33620;52.340;5.984;2022-10-16T12:23:23;14.65;;;2.50;;
47860;SDS011;33620;52.340;5.984;2022-10-16T12:25:54;11.25;;;2.13;;
47860;SDS011;33620;52.340;5.984;2022-10-16T12:28:21;9.50;;;2.42;;
47860;SDS011;33620;52.340;5.984;2022-10-16T12:30:54;11.63;;;2.70;;
47860;SDS011;33620;52.340;5.984;2022-10-16T12:33:29;7.30;;;2.20;;
47860;SDS011;33620;52.340;5.984;2022-10-16T12:35:57;11.43;;;2.78;;
47860;SDS011;33620;52.340;5.984;2022-10-16T12:38:28;16.83;;;2.97;;
47860;SDS011;33620;52.340;5.984;2022-10-16T12:41:01;14.65;;;2.58;;
47860;SDS011;33620;52.340;5.984;2022-10-16T12:46:05;9.35;;;2.60;;
47860;SDS011;33620;52.340;5.984;2022-10-16T12:48:44;14.23;;;2.80;;
47860;SDS011;33620;52.340;5.984;2022-10-16T12:51:24;12.20;;;2.50;;
47860;SDS011;33620;52.340;5.984;2022-10-16T12:59:24;14.13;;;2.85;;
47860;SDS011;33620;52.340;5.984;2022-10-16T13:10:55;9.05;;;2.20;;
47860;SDS011;33620;52.340;5.984;2022-10-16T13:14:02;10.48;;;2.38;;
47860;SDS011;33620;52.340;5.984;2022-10-16T13:22:51;8.48;;;2.30;;
47860;SDS011;33620;52.340;5.984;2022-10-16T13:27:51;8.68;;;2.15;;
47860;SDS011;33620;52.340;5.984;2022-10-16T13:30:20;10.05;;;2.10;;
47860;SDS011;33620;52.340;5.984;2022-10-16T13:32:50;12.10;;;2.38;;
47860;SDS011;33620;52.340;5.984;2022-10-16T13:35:23;13.65;;;2.80;;
47860;SDS011;33620;52.340;5.984;2022-10-16T13:37:51;11.65;;;1.90;;
47860;SDS011;33620;52.340;5.984;2022-10-16T13:40:27;10.48;;;1.95;;
47860;SDS011;33620;52.340;5.984;2022-10-16T13:42:52;12.75;;;2.00;;
47860;SDS011;33620;52.340;5.984;2022-10-16T13:45:22;13.43;;;2.83;;
47860;SDS011;33620;52.340;5.984;2022-10-16T13:48:00;14.18;;;2.47;;
47860;SDS011;33620;52.340;5.984;2022-10-16T13:50:26;10.63;;;2.40;;
47860;SDS011;33620;52.340;5.984;2022-10-16T13:52:52;11.45;;;2.20;;
47860;SDS011;33620;52.340;5.984;2022-10-16T13:55:40;14.70;;;2.22;;
47860;SDS011;33620;52.340;5.984;2022-10-16T13:58:07;14.95;;;3.03;;
47860;SDS011;33620;52.340;5.984;2022-10-16T14:00:35;11.07;;;2.55;;
47860;SDS011;33620;52.340;5.984;2022-10-16T14:03:02;11.93;;;2.33;;
47860;SDS011;33620;52.340;5.984;2022-10-16T14:05:30;10.18;;;2.10;;
47860;SDS011;33620;52.340;5.984;2022-10-16T14:07:56;10.48;;;2.33;;
47860;SDS011;33620;52.340;5.984;2022-10-16T14:10:24;10.82;;;2.35;;
47860;SDS011;33620;52.340;5.984;2022-10-16T14:12:59;13.18;;;2.55;;
47860;SDS011;33620;52.340;5.984;2022-10-16T14:15:29;10.10;;;2.00;;
47860;SDS011;33620;52.340;5.984;2022-10-16T14:17:56;13.50;;;2.47;;
47860;SDS011;33620;52.340;5.984;2022-10-16T14:20:24;14.60;;;2.85;;
47860;SDS011;33620;52.340;5.984;2022-10-16T14:23:02;12.88;;;2.53;;
47860;SDS011;33620;52.340;5.984;2022-10-16T14:25:30;13.85;;;2.55;;
47860;SDS011;33620;52.340;5.984;2022-10-16T14:28:00;11.82;;;2.47;;
47860;SDS011;33620;52.340;5.984;2022-10-16T14:30:48;10.35;;;2.20;;
47860;SDS011;33620;52.340;5.984;2022-10-16T14:33:24;12.25;;;2.30;;
47860;SDS011;33620;52.340;5.984;2022-10-16T14:38:30;12.48;;;2.47;;
47860;SDS011;33620;52.340;5.984;2022-10-16T14:40:57;13.98;;;2.47;;
47860;SDS011;33620;52.340;5.984;2022-10-16T14:43:29;10.98;;;2.58;;
47860;SDS011;33620;52.340;5.984;2022-10-16T14:45:57;10.35;;;2.40;;
47860;SDS011;33620;52.340;5.984;2022-10-16T14:48:23;14.35;;;2.60;;
47860;SDS011;33620;52.340;5.984;2022-10-16T14:50:49;15.77;;;3.88;;
47860;SDS011;33620;52.340;5.984;2022-10-16T14:53:15;19.65;;;3.15;;
47860;SDS011;33620;52.340;5.984;2022-10-16T14:55:41;28.23;;;11.63;;
47860;SDS011;33620;52.340;5.984;2022-10-16T14:58:13;21.15;;;6.13;;
47860;SDS011;33620;52.340;5.984;2022-10-16T15:00:41;16.48;;;3.78;;
47860;SDS011;33620;52.340;5.984;2022-10-16T15:03:06;5.90;;;2.33;;
47860;SDS011;33620;52.340;5.984;2022-10-16T15:05:32;19.40;;;3.05;;
47860;SDS011;33620;52.340;5.984;2022-10-16T15:07:57;12.73;;;2.92;;
47860;SDS011;33620;52.340;5.984;2022-10-16T15:10:23;16.00;;;3.20;;
47860;SDS011;33620;52.340;5.984;2022-10-16T15:12:50;14.52;;;2.63;;
47860;SDS011;33620;52.340;5.984;2022-10-16T15:17:48;12.77;;;2.90;;
47860;SDS011;33620;52.340;5.984;2022-10-16T15:20:19;11.52;;;2.35;;
47860;SDS011;33620;52.340;5.984;2022-10-16T15:22:44;9.93;;;2.35;;
47860;SDS011;33620;52.340;5.984;2022-10-16T15:27:54;14.25;;;3.70;;
47860;SDS011;33620;52.340;5.984;2022-10-16T15:30:19;13.10;;;3.03;;
47860;SDS011;33620;52.340;5.984;2022-10-16T15:32:44;12.27;;;2.85;;
47860;SDS011;33620;52.340;5.984;2022-10-16T15:35:10;9.82;;;2.65;;
47860;SDS011;33620;52.340;5.984;2022-10-16T15:37:35;16.35;;;2.78;;
47860;SDS011;33620;52.340;5.984;2022-10-16T15:40:00;9.35;;;2.45;;
47860;SDS011;33620;52.340;5.984;2022-10-16T15:42:26;13.70;;;2.50;;
47860;SDS011;33620;52.340;5.984;2022-10-16T15:44:51;11.73;;;2.53;;
47860;SDS011;33620;52.340;5.984;2022-10-16T15:47:17;12.50;;;2.95;;
47860;SDS011;33620;52.340;5.984;2022-10-16T15:49:42;10.25;;;2.63;;
47860;SDS011;33620;52.340;5.984;2022-10-16T15:52:07;14.13;;;2.53;;
47860;SDS011;33620;52.340;5.984;2022-10-16T15:54:33;7.32;;;2.78;;
47860;SDS011;33620;52.340;5.984;2022-10-16T15:56:58;10.73;;;2.42;;
47860;SDS011;33620;52.340;5.984;2022-10-16T15:59:23;12.68;;;2.80;;
47860;SDS011;33620;52.340;5.984;2022-10-16T16:01:49;16.30;;;3.20;;
47860;SDS011;33620;52.340;5.984;2022-10-16T16:04:14;13.45;;;3.00;;
47860;SDS011;33620;52.340;5.984;2022-10-16T16:06:41;11.15;;;2.85;;
47860;SDS011;33620;52.340;5.984;2022-10-16T16:09:09;12.30;;;3.00;;
47860;SDS011;33620;52.340;5.984;2022-10-16T16:11:35;13.60;;;2.63;;
47860;SDS011;33620;52.340;5.984;2022-10-16T16:14:03;15.27;;;2.33;;
47860;SDS011;33620;52.340;5.984;2022-10-16T16:16:31;10.02;;;2.55;;
47860;SDS011;33620;52.340;5.984;2022-10-16T16:19:03;10.05;;;2.70;;
47860;SDS011;33620;52.340;5.984;2022-10-16T16:21:32;11.55;;;2.60;;
47860;SDS011;33620;52.340;5.984;2022-10-16T16:23:58;14.25;;;3.30;;
47860;SDS011;33620;52.340;5.984;2022-10-16T16:28:57;15.73;;;3.63;;
47860;SDS011;33620;52.340;5.984;2022-10-16T16:31:26;16.02;;;4.32;;
47860;SDS011;33620;52.340;5.984;2022-10-16T16:33:53;11.07;;;3.28;;
47860;SDS011;33620;52.340;5.984;2022-10-16T16:36:18;19.52;;;4.38;;
47860;SDS011;33620;52.340;5.984;2022-10-16T16:38:45;11.15;;;4.57;;
47860;SDS011;33620;52.340;5.984;2022-10-16T16:41:21;11.60;;;3.55;;
47860;SDS011;33620;52.340;5.984;2022-10-16T16:43:48;18.52;;;5.72;;
47860;SDS011;33620;52.340;5.984;2022-10-16T16:46:16;15.93;;;6.53;;
47860;SDS011;33620;52.340;5.984;2022-10-16T16:48:41;20.30;;;6.13;;
47860;SDS011;33620;52.340;5.984;2022-10-16T16:51:08;17.48;;;6.50;;